createdAt,value
2022-08-21T00:00:13.410Z,1.85
2022-08-21T00:02:45.775Z,2.17
2022-08-21T00:05:12.156Z,2.22
2022-08-21T00:07:38.622Z,1.92
2022-08-21T00:10:05.561Z,1.92
2022-08-21T00:12:32.200Z,1.73
2022-08-21T00:14:58.976Z,2.13
2022-08-21T00:17:26.986Z,1.70
2022-08-21T00:19:53.374Z,1.98
2022-08-21T00:22:19.786Z,2.35
2022-08-21T00:24:47.507Z,2.60
2022-08-21T00:27:13.945Z,2.08
2022-08-21T00:29:40.322Z,2.33
2022-08-21T00:32:06.754Z,2.00
2022-08-21T00:34:33.253Z,1.92
2022-08-21T00:36:59.694Z,2.03
2022-08-21T00:39:26.244Z,2.35
2022-08-21T00:41:52.649Z,1.80
2022-08-21T00:44:19.030Z,1.88
2022-08-21T00:46:45.439Z,1.90
2022-08-21T00:49:12.883Z,2.05
2022-08-21T00:51:42.942Z,2.05
2022-08-21T00:54:18.704Z,2.53
2022-08-21T00:56:46.356Z,1.95
2022-08-21T00:59:13.703Z,2.67
2022-08-21T01:01:40.197Z,2.13
2022-08-21T01:04:06.678Z,2.03
2022-08-21T01:06:33.126Z,2.25
2022-08-21T01:08:59.577Z,1.98
2022-08-21T01:11:26.213Z,1.90
2022-08-21T01:13:53.236Z,2.15
2022-08-21T01:16:22.985Z,1.85
2022-08-21T01:18:50.284Z,1.75
2022-08-21T01:21:21.602Z,1.92
2022-08-21T01:23:49.317Z,2.08
2022-08-21T01:26:17.169Z,2.25
2022-08-21T01:28:49.716Z,2.10
2022-08-21T01:31:19.034Z,1.88
2022-08-21T01:33:53.069Z,1.80
2022-08-21T01:36:19.531Z,2.00
2022-08-21T01:38:46.062Z,1.90
2022-08-21T01:41:12.689Z,1.63
2022-08-21T01:43:39.767Z,2.00
2022-08-21T01:46:06.767Z,2.00
2022-08-21T01:48:33.348Z,2.15
2022-08-21T01:50:59.879Z,2.00
2022-08-21T01:53:27.821Z,1.90
2022-08-21T01:55:59.940Z,2.25
2022-08-21T01:58:26.356Z,2.00
2022-08-21T02:00:52.855Z,2.22
2022-08-21T02:03:25.862Z,3.00
2022-08-21T02:06:01.960Z,1.80
2022-08-21T02:08:29.105Z,2.00
2022-08-21T02:10:55.547Z,2.10
2022-08-21T02:13:22.074Z,2.25
2022-08-21T02:15:49.455Z,2.05
2022-08-21T02:18:15.893Z,2.20
2022-08-21T02:20:45.473Z,2.22
2022-08-21T02:23:12.897Z,2.55
2022-08-21T02:25:39.726Z,2.00
2022-08-21T02:28:07.531Z,2.63
2022-08-21T02:30:36.184Z,3.00
2022-08-21T02:33:02.603Z,2.40
2022-08-21T02:35:29.298Z,3.70
2022-08-21T02:37:57.691Z,3.92
2022-08-21T02:40:26.065Z,4.30
2022-08-21T02:42:52.685Z,4.13
2022-08-21T02:45:19.573Z,4.22
2022-08-21T02:47:49.721Z,4.55
2022-08-21T02:50:18.881Z,4.38
2022-08-21T02:52:46.241Z,5.25
2022-08-21T02:55:18.216Z,5.60
2022-08-21T02:57:44.621Z,5.32
2022-08-21T03:00:12.941Z,4.90
2022-08-21T03:02:39.325Z,4.15
2022-08-21T03:05:06.817Z,4.40
2022-08-21T03:07:33.184Z,3.08
2022-08-21T03:09:59.587Z,3.50
2022-08-21T03:12:29.821Z,3.53
2022-08-21T03:14:56.565Z,5.10
2022-08-21T03:17:29.474Z,4.93
2022-08-21T03:19:57.830Z,5.70
2022-08-21T03:22:24.263Z,3.97
2022-08-21T03:24:50.862Z,4.65
2022-08-21T03:27:18.522Z,4.25
2022-08-21T03:29:46.513Z,4.35
2022-08-21T03:32:12.953Z,3.83
2022-08-21T03:34:39.738Z,3.80
2022-08-21T03:37:07.147Z,3.67
2022-08-21T03:39:34.195Z,3.40
2022-08-21T03:42:00.970Z,3.53
2022-08-21T03:44:29.277Z,2.90
2022-08-21T03:46:56.228Z,3.15
2022-08-21T03:49:22.610Z,2.90
2022-08-21T03:51:49.997Z,3.10
2022-08-21T03:54:25.962Z,2.97
2022-08-21T03:56:55.480Z,3.10
2022-08-21T03:59:21.868Z,2.72
2022-08-21T04:01:54.370Z,2.85
2022-08-21T04:04:20.893Z,2.70
2022-08-21T04:06:47.527Z,2.97
2022-08-21T04:09:14.035Z,3.03
2022-08-21T04:11:40.431Z,3.33
2022-08-21T04:14:06.938Z,2.97
2022-08-21T04:16:33.360Z,3.00
2022-08-21T04:18:59.741Z,3.38
2022-08-21T04:21:26.353Z,3.17
2022-08-21T04:23:54.736Z,2.72
2022-08-21T04:26:21.293Z,2.50
2022-08-21T04:28:47.738Z,2.78
2022-08-21T04:31:16.248Z,2.97
2022-08-21T04:33:42.692Z,2.50
2022-08-21T04:36:09.292Z,3.22
2022-08-21T04:38:36.672Z,2.47
2022-08-21T04:41:05.284Z,2.63
2022-08-21T04:43:31.760Z,3.10
2022-08-21T04:45:58.150Z,2.92
2022-08-21T04:48:30.528Z,2.83
2022-08-21T04:51:03.203Z,2.60
2022-08-21T04:53:29.549Z,2.95
2022-08-21T04:55:57.689Z,3.05
2022-08-21T04:58:25.981Z,2.38
2022-08-21T05:00:54.174Z,3.03
2022-08-21T05:03:20.617Z,3.00
2022-08-21T05:05:47.100Z,2.55
2022-08-21T05:08:15.429Z,2.67
2022-08-21T05:10:43.180Z,2.67
2022-08-21T05:13:09.720Z,2.90
2022-08-21T05:15:36.160Z,2.90
2022-08-21T05:18:02.640Z,3.20
2022-08-21T05:20:29.668Z,2.70
2022-08-21T05:22:56.349Z,2.30
2022-08-21T05:25:23.653Z,2.17
2022-08-21T05:27:52.018Z,2.65
2022-08-21T05:30:19.887Z,2.28
2022-08-21T05:32:46.667Z,2.83
2022-08-21T05:35:13.225Z,2.65
2022-08-21T05:37:39.646Z,2.58
2022-08-21T05:40:21.066Z,2.80
2022-08-21T05:42:54.379Z,2.60
2022-08-21T05:45:41.632Z,2.55
2022-08-21T05:48:09.383Z,2.40
2022-08-21T05:50:35.998Z,2.60
2022-08-21T05:53:04.386Z,2.75
2022-08-21T05:55:34.440Z,2.40
2022-08-21T05:58:00.877Z,2.33
2022-08-21T06:00:27.268Z,2.65
2022-08-21T06:02:53.638Z,3.00
2022-08-21T06:05:36.335Z,2.30
2022-08-21T06:08:03.802Z,2.40
2022-08-21T06:10:30.235Z,2.22
2022-08-21T06:12:56.760Z,2.80
2022-08-21T06:15:23.209Z,1.90
2022-08-21T06:17:49.741Z,2.08
2022-08-21T06:20:16.168Z,2.50
2022-08-21T06:22:42.559Z,2.50
2022-08-21T06:25:10.257Z,2.20
2022-08-21T06:27:36.685Z,2.50
2022-08-21T06:30:04.862Z,2.22
2022-08-21T06:32:31.262Z,2.05
2022-08-21T06:34:57.695Z,2.65
2022-08-21T06:37:24.078Z,2.47
2022-08-21T06:39:50.516Z,2.38
2022-08-21T06:42:18.217Z,1.80
2022-08-21T06:44:45.087Z,2.03
2022-08-21T06:47:11.618Z,2.08
2022-08-21T06:49:38.003Z,2.47
2022-08-21T06:52:04.558Z,2.60
2022-08-21T06:54:31.696Z,2.08
2022-08-21T06:56:58.055Z,3.28
2022-08-21T06:59:24.436Z,1.98
2022-08-21T07:01:50.883Z,2.20
2022-08-21T07:04:17.390Z,1.92
2022-08-21T07:06:44.029Z,2.72
2022-08-21T07:09:11.528Z,1.50
2022-08-21T07:11:45.056Z,1.92
2022-08-21T07:14:20.388Z,2.33
2022-08-21T07:16:47.403Z,1.90
2022-08-21T07:19:13.877Z,1.73
2022-08-21T07:21:40.326Z,1.83
2022-08-21T07:24:06.743Z,1.63
2022-08-21T07:26:33.205Z,1.80
2022-08-21T07:28:59.617Z,1.40
2022-08-21T07:31:27.042Z,1.60
2022-08-21T07:33:53.582Z,1.58
2022-08-21T07:36:19.979Z,1.50
2022-08-21T07:38:46.718Z,1.40
2022-08-21T07:41:20.897Z,1.40
2022-08-21T07:43:47.322Z,1.77
2022-08-21T07:46:13.785Z,1.40
2022-08-21T07:48:40.321Z,1.50
2022-08-21T07:51:07.685Z,1.23
2022-08-21T07:53:34.348Z,1.50
2022-08-21T07:56:00.966Z,1.40
2022-08-21T07:58:27.373Z,1.30
2022-08-21T08:00:54.093Z,1.95
2022-08-21T08:03:28.861Z,1.20
2022-08-21T08:05:55.894Z,1.60
2022-08-21T08:08:22.381Z,1.80
2022-08-21T08:10:50.428Z,1.75
2022-08-21T08:13:17.449Z,1.75
2022-08-21T08:15:43.885Z,1.33
2022-08-21T08:18:10.304Z,2.28
2022-08-21T08:20:36.954Z,1.40
2022-08-21T08:23:03.542Z,1.50
2022-08-21T08:25:30.540Z,1.42
2022-08-21T08:28:02.934Z,1.60
2022-08-21T08:30:36.282Z,1.60
2022-08-21T08:33:05.837Z,1.88
2022-08-21T08:35:32.205Z,1.90
2022-08-21T08:37:59.676Z,1.50
2022-08-21T08:40:36.562Z,1.73
2022-08-21T08:43:06.351Z,1.42
2022-08-21T08:45:35.585Z,1.80
2022-08-21T08:48:04.002Z,1.38
2022-08-21T08:50:33.534Z,1.70
2022-08-21T08:53:06.019Z,1.50
2022-08-21T08:55:36.990Z,1.58
2022-08-21T09:00:31.867Z,1.60
2022-08-21T09:03:00.849Z,1.90
2022-08-21T09:05:29.650Z,1.75
2022-08-21T09:07:59.106Z,1.67
2022-08-21T09:10:51.767Z,1.67
2022-08-21T09:13:35.450Z,1.65
2022-08-21T09:16:09.506Z,1.42
2022-08-21T09:18:57.859Z,1.70
2022-08-21T09:21:29.289Z,1.60
2022-08-21T09:23:58.694Z,1.95
2022-08-21T09:26:31.726Z,1.80
2022-08-21T09:28:59.554Z,1.95
2022-08-21T09:31:28.009Z,2.05
2022-08-21T09:34:00.507Z,1.73
2022-08-21T09:36:33.796Z,1.80
2022-08-21T09:39:00.190Z,2.10
2022-08-21T09:41:28.344Z,1.80
2022-08-21T09:43:54.942Z,2.05
2022-08-21T09:46:22.737Z,1.40
2022-08-21T09:48:50.903Z,1.80
2022-08-21T09:51:37.923Z,1.40
2022-08-21T09:54:07.152Z,1.88
2022-08-21T09:57:11.034Z,2.40
2022-08-21T09:59:38.247Z,1.35
2022-08-21T10:02:20.739Z,1.10
2022-08-21T10:04:52.339Z,1.55
2022-08-21T10:07:21.315Z,1.20
2022-08-21T10:09:58.542Z,1.38
2022-08-21T10:12:29.501Z,1.80
2022-08-21T10:15:16.791Z,1.60
2022-08-21T10:17:53.510Z,1.55
2022-08-21T10:20:35.188Z,1.00
2022-08-21T10:23:18.684Z,1.30
2022-08-21T10:25:57.159Z,1.20
2022-08-21T10:28:43.446Z,1.20
2022-08-21T10:31:29.087Z,1.42
2022-08-21T10:34:31.117Z,1.10
2022-08-21T10:37:07.840Z,1.00
2022-08-21T10:39:46.589Z,1.40
2022-08-21T10:42:34.593Z,1.20
2022-08-21T10:45:00.948Z,1.52
2022-08-21T10:47:30.477Z,1.08
2022-08-21T10:50:23.279Z,1.20
2022-08-21T10:52:52.635Z,1.13
2022-08-21T10:55:22.100Z,1.08
2022-08-21T10:57:55.618Z,1.20
2022-08-21T11:00:23.604Z,1.05
2022-08-21T11:03:11.720Z,0.98
2022-08-21T11:05:50.772Z,1.40
2022-08-21T11:08:43.840Z,1.33
2022-08-21T11:11:20.695Z,1.00
2022-08-21T11:13:54.056Z,1.00
2022-08-21T11:16:23.625Z,1.27
2022-08-21T11:19:08.744Z,1.10
2022-08-21T11:21:38.246Z,1.13
2022-08-21T11:24:05.594Z,1.65
2022-08-21T11:26:32.265Z,1.10
2022-08-21T11:29:21.697Z,1.08
2022-08-21T11:32:26.800Z,1.13
2022-08-21T11:35:11.668Z,1.05
2022-08-21T11:38:04.817Z,1.15
2022-08-21T11:40:50.087Z,1.20
2022-08-21T11:43:25.526Z,1.13
2022-08-21T11:45:53.961Z,1.27
2022-08-21T11:48:26.448Z,1.17
2022-08-21T11:50:53.840Z,1.30
2022-08-21T11:53:33.373Z,1.40
2022-08-21T11:56:02.998Z,1.25
2022-08-21T11:58:38.598Z,1.80
2022-08-21T12:01:10.356Z,1.40
2022-08-21T12:03:39.367Z,1.00
2022-08-21T12:06:13.729Z,1.25
2022-08-21T12:08:58.339Z,1.50
2022-08-21T12:11:30.667Z,1.02
2022-08-21T12:14:00.711Z,1.60
2022-08-21T12:16:35.351Z,1.60
2022-08-21T12:19:05.134Z,1.20
2022-08-21T12:21:31.819Z,1.40
2022-08-21T12:24:19.628Z,1.58
2022-08-21T12:26:50.726Z,1.40
2022-08-21T12:29:24.113Z,1.30
2022-08-21T12:31:52.568Z,1.40
2022-08-21T12:34:20.212Z,1.50
2022-08-21T12:36:50.742Z,1.52
2022-08-21T12:41:45.689Z,2.22
2022-08-21T12:44:15.006Z,1.30
2022-08-21T12:46:46.865Z,1.80
2022-08-21T12:49:32.709Z,1.42
2022-08-21T12:52:39.098Z,1.50
2022-08-21T12:55:06.642Z,1.60
2022-08-21T12:57:33.092Z,1.60
2022-08-21T13:00:01.437Z,1.30
2022-08-21T13:02:30.494Z,1.30
2022-08-21T13:04:57.520Z,1.58
2022-08-21T13:07:31.565Z,1.35
2022-08-21T13:13:25.554Z,1.38
2022-08-21T13:19:21.920Z,1.35
2022-08-21T13:21:51.149Z,1.30
2022-08-21T13:24:43.351Z,1.20
2022-08-21T13:27:18.806Z,1.30
2022-08-21T13:29:53.081Z,1.30
2022-08-21T13:32:22.663Z,1.25
2022-08-21T13:34:52.490Z,1.30
2022-08-21T13:37:28.060Z,1.50
2022-08-21T13:39:54.773Z,1.45
2022-08-21T13:42:21.429Z,1.55
2022-08-21T13:44:48.773Z,2.15
2022-08-21T13:47:16.898Z,1.73
2022-08-21T13:49:47.823Z,2.03
2022-08-21T13:52:20.272Z,1.60
2022-08-21T13:54:53.669Z,1.52
2022-08-21T13:58:18.966Z,2.00
2022-08-21T14:00:50.000Z,1.58
2022-08-21T14:03:32.006Z,1.67
2022-08-21T14:06:00.446Z,1.63
2022-08-21T14:08:33.423Z,1.77
2022-08-21T14:11:00.696Z,1.90
2022-08-21T14:13:47.157Z,1.75
2022-08-21T14:16:18.592Z,1.60
2022-08-21T14:18:52.966Z,1.30
2022-08-21T14:21:36.563Z,1.60
2022-08-21T14:24:11.194Z,1.23
2022-08-21T14:26:45.214Z,1.98
2022-08-21T14:29:14.116Z,1.67
2022-08-21T14:31:43.376Z,1.40
2022-08-21T14:34:19.336Z,1.50
2022-08-21T14:36:46.265Z,1.50
2022-08-21T14:39:12.704Z,1.98
2022-08-21T14:41:43.512Z,1.85
2022-08-21T14:44:10.286Z,1.35
2022-08-21T14:46:45.840Z,1.70
2022-08-21T14:49:22.786Z,1.70
2022-08-21T14:51:54.712Z,1.58
2022-08-21T14:54:22.536Z,1.50
2022-08-21T14:56:58.785Z,2.55
2022-08-21T14:59:26.830Z,1.40
2022-08-21T15:01:53.957Z,1.63
2022-08-21T15:04:20.385Z,1.33
2022-08-21T15:06:46.853Z,1.48
2022-08-21T15:09:13.274Z,1.60
2022-08-21T15:11:42.447Z,2.45
2022-08-21T15:14:12.212Z,1.60
2022-08-21T15:16:38.695Z,1.60
2022-08-21T15:19:05.083Z,1.50
2022-08-21T15:21:31.458Z,1.70
2022-08-21T15:23:57.977Z,1.48
2022-08-21T15:26:24.529Z,1.67
2022-08-21T15:28:51.154Z,1.42
2022-08-21T15:31:17.562Z,1.70
2022-08-21T15:33:43.969Z,1.50
2022-08-21T15:36:10.458Z,1.50
2022-08-21T15:38:36.865Z,1.73
2022-08-21T15:41:04.246Z,1.35
2022-08-21T15:43:32.566Z,1.83
2022-08-21T15:45:59.950Z,1.85
2022-08-21T15:48:26.348Z,1.70
2022-08-21T15:50:52.721Z,1.58
2022-08-21T15:53:19.151Z,1.63
2022-08-21T15:55:45.573Z,1.80
2022-08-21T15:58:16.352Z,1.55
2022-08-21T16:00:45.046Z,1.80
2022-08-21T16:03:14.995Z,1.25
2022-08-21T16:05:41.452Z,1.67
2022-08-21T16:08:08.050Z,1.63
2022-08-21T16:10:35.889Z,1.50
2022-08-21T16:13:03.753Z,1.40
2022-08-21T16:15:30.225Z,1.45
2022-08-21T16:17:57.039Z,2.20
2022-08-21T16:20:29.241Z,1.17
2022-08-21T16:22:57.098Z,1.30
2022-08-21T16:25:23.826Z,1.50
2022-08-21T16:27:54.300Z,1.70
2022-08-21T16:30:24.258Z,1.52
2022-08-21T16:32:51.159Z,1.63
2022-08-21T16:35:18.662Z,1.92
2022-08-21T16:37:45.105Z,1.77
2022-08-21T16:40:12.108Z,1.58
2022-08-21T16:42:40.174Z,1.80
2022-08-21T16:45:07.766Z,1.67
2022-08-21T16:47:34.163Z,2.03
2022-08-21T16:50:01.023Z,1.95
2022-08-21T16:52:27.430Z,2.25
2022-08-21T16:54:57.601Z,2.38
2022-08-21T16:57:24.738Z,2.03
2022-08-21T16:59:51.359Z,2.28
2022-08-21T17:02:29.802Z,2.65
2022-08-21T17:04:56.282Z,2.55
2022-08-21T17:07:22.813Z,2.10
2022-08-21T17:09:49.232Z,2.15
2022-08-21T17:12:16.542Z,2.35
2022-08-21T17:14:42.976Z,2.10
2022-08-21T17:17:10.479Z,2.30
2022-08-21T17:19:38.479Z,2.40
2022-08-21T17:22:07.382Z,2.63
2022-08-21T17:24:34.562Z,2.13
2022-08-21T17:27:01.381Z,2.67
2022-08-21T17:29:29.537Z,2.35
2022-08-21T17:31:57.036Z,2.20
2022-08-21T17:34:24.173Z,2.58
2022-08-21T17:36:57.537Z,2.50
2022-08-21T17:39:26.690Z,3.17
2022-08-21T17:41:56.354Z,2.60
2022-08-21T17:44:27.009Z,2.65
2022-08-21T17:46:53.678Z,2.50
2022-08-21T17:49:23.426Z,2.35
2022-08-21T17:51:49.875Z,2.22
2022-08-21T17:54:16.259Z,2.15
2022-08-21T17:56:43.199Z,2.33
2022-08-21T17:59:10.495Z,2.60
2022-08-21T18:01:42.649Z,1.65
2022-08-21T18:04:09.658Z,2.17
2022-08-21T18:06:36.420Z,2.47
2022-08-21T18:09:40.840Z,2.28
2022-08-21T18:12:08.421Z,2.20
2022-08-21T18:14:36.342Z,1.80
2022-08-21T18:17:03.678Z,1.90
2022-08-21T18:19:30.119Z,1.27
2022-08-21T18:21:56.777Z,2.00
2022-08-21T18:24:23.576Z,1.42
2022-08-21T18:26:50.338Z,1.92
2022-08-21T18:29:17.989Z,1.67
2022-08-21T18:31:46.190Z,1.40
2022-08-21T18:34:21.774Z,2.45
2022-08-21T18:36:48.635Z,1.80
2022-08-21T18:39:35.522Z,2.35
2022-08-21T18:42:02.884Z,1.58
2022-08-21T18:44:31.221Z,1.60
2022-08-21T18:47:02.282Z,1.60
2022-08-21T18:49:31.230Z,1.63
2022-08-21T18:51:57.888Z,1.77
2022-08-21T18:54:24.347Z,2.50
2022-08-21T18:56:54.801Z,1.70
2022-08-21T18:59:21.735Z,2.15
2022-08-21T19:01:48.399Z,1.70
2022-08-21T19:04:29.964Z,1.92
2022-08-21T19:07:01.308Z,1.60
2022-08-21T19:09:27.746Z,1.83
2022-08-21T19:11:54.281Z,1.90
2022-08-21T19:14:20.712Z,1.80
2022-08-21T19:16:50.090Z,1.73
2022-08-21T19:19:18.103Z,1.83
2022-08-21T19:21:44.713Z,1.90
2022-08-21T19:24:17.714Z,1.60
2022-08-21T19:26:48.297Z,2.00
2022-08-21T19:29:16.334Z,1.98
2022-08-21T19:31:43.470Z,1.63
2022-08-21T19:34:12.880Z,2.05
2022-08-21T19:36:42.367Z,1.90
2022-08-21T19:39:08.876Z,2.05
2022-08-21T19:41:36.853Z,2.15
2022-08-21T19:44:05.985Z,2.83
2022-08-21T19:49:22.959Z,2.30
2022-08-21T19:51:49.613Z,1.70
2022-08-21T19:54:22.543Z,1.88
2022-08-21T19:56:53.055Z,2.22
2022-08-21T19:59:24.897Z,2.55
2022-08-21T20:01:51.684Z,2.05
2022-08-21T20:04:19.512Z,1.92
2022-08-21T20:06:46.383Z,1.63
2022-08-21T20:09:13.938Z,1.65
2022-08-21T20:11:46.878Z,2.20
2022-08-21T20:14:14.155Z,1.70
2022-08-21T20:16:41.439Z,2.17
2022-08-21T20:19:08.321Z,1.42
2022-08-21T20:21:43.676Z,1.67
2022-08-21T20:24:11.882Z,1.83
2022-08-21T20:26:41.850Z,1.60
2022-08-21T20:29:15.546Z,1.48
2022-08-21T20:31:42.758Z,1.77
2022-08-21T20:34:09.620Z,1.60
2022-08-21T20:36:36.240Z,1.90
2022-08-21T20:39:03.102Z,1.80
2022-08-21T20:41:30.805Z,2.47
2022-08-21T20:43:58.261Z,1.92
2022-08-21T20:46:25.764Z,2.00
2022-08-21T20:48:54.675Z,1.70
2022-08-21T20:51:23.487Z,1.73
2022-08-21T20:53:55.402Z,2.28
2022-08-21T20:56:37.138Z,1.92
2022-08-21T20:59:10.374Z,2.50
2022-08-21T21:01:36.937Z,2.35
2022-08-21T21:04:21.003Z,1.90
2022-08-21T21:06:50.178Z,2.00
2022-08-21T21:09:22.540Z,2.00
2022-08-21T21:11:54.615Z,2.65
2022-08-21T21:14:24.035Z,2.15
2022-08-21T21:16:59.335Z,2.03
2022-08-21T21:19:28.973Z,2.72
2022-08-21T21:22:06.538Z,2.45
2022-08-21T21:24:46.712Z,1.67
2022-08-21T21:27:36.473Z,2.30
2022-08-21T21:30:06.792Z,2.13
2022-08-21T21:32:38.987Z,2.22
2022-08-21T21:35:05.853Z,2.17
2022-08-21T21:37:37.092Z,2.03
2022-08-21T21:40:23.027Z,1.60
2022-08-21T21:43:08.673Z,2.38
2022-08-21T21:45:43.577Z,2.08
2022-08-21T21:48:13.036Z,2.00
2022-08-21T21:51:12.040Z,2.28
2022-08-21T21:53:45.350Z,2.05
2022-08-21T21:56:18.060Z,2.40
2022-08-21T21:58:44.455Z,2.78
2022-08-21T22:01:26.109Z,2.13
2022-08-21T22:04:05.272Z,1.83
2022-08-21T22:06:34.804Z,2.08
2022-08-21T22:09:20.194Z,2.05
2022-08-21T22:11:55.487Z,2.67
2022-08-21T22:14:23.334Z,1.38
2022-08-21T22:16:50.401Z,1.90
2022-08-21T22:19:30.776Z,2.80
2022-08-21T22:22:14.244Z,2.03
2022-08-21T22:24:44.586Z,2.10
2022-08-21T22:27:13.428Z,2.00
2022-08-21T22:29:44.288Z,1.85
2022-08-21T22:32:12.008Z,2.63
2022-08-21T22:34:38.667Z,1.65
2022-08-21T22:37:07.607Z,2.28
2022-08-21T22:39:39.649Z,2.15
2022-08-21T22:42:08.096Z,2.38
2022-08-21T22:44:47.371Z,2.15
2022-08-21T22:47:18.734Z,1.95
2022-08-21T22:49:47.364Z,2.17
2022-08-21T22:52:26.715Z,1.63
2022-08-21T22:54:54.690Z,2.85
2022-08-21T22:57:27.455Z,1.75
2022-08-21T23:02:37.949Z,1.95
2022-08-21T23:05:17.225Z,1.50
2022-08-21T23:07:49.694Z,1.80
2022-08-21T23:10:26.227Z,1.75
2022-08-21T23:12:59.360Z,1.77
2022-08-21T23:15:28.171Z,1.40
2022-08-21T23:17:54.892Z,1.58
2022-08-21T23:20:24.954Z,2.05
2022-08-21T23:23:03.559Z,1.63
2022-08-21T23:25:30.095Z,1.52
2022-08-21T23:27:59.964Z,1.50
2022-08-21T23:30:46.589Z,2.10
2022-08-21T23:33:30.298Z,2.05
2022-08-21T23:36:52.658Z,1.75
2022-08-21T23:39:20.613Z,1.73
2022-08-21T23:42:02.608Z,2.70
2022-08-21T23:44:55.483Z,1.83
2022-08-21T23:47:37.233Z,1.73
2022-08-21T23:50:22.352Z,1.85
2022-08-21T23:52:51.777Z,1.90
2022-08-21T23:55:18.141Z,1.55
2022-08-21T23:58:03.309Z,1.80
